Time;durP1;ratioP1;P1;durP2;ratioP2;P2;SDS_P1;SDS_P2;PMS_P1;PMS_P2;Temp;Humidity;BMP_temperature;BMP_pressure;BME280_temperature;BME280_humidity;BME280_pressure;Samples;Min_cycle;Max_cycle;Signal;HPM_P1;HPM_P2
2023/04/06 00:00:34;;;;;;;0.00;0.00;;;;;;;;;;6258204;22;20099;-94
2023/04/06 00:02:59;;;;;;;0.10;0.10;;;;;;;;;;6261586;22;20003;-94
2023/04/06 00:05:27;;;;;;;0.10;0.10;;;;;;;;;;6260564;22;20023;-94
2023/04/06 00:07:55;;;;;;;0.10;0.10;;;;;;;;;;6261712;22;20045;-94
2023/04/06 00:10:21;;;;;;;0.10;0.10;;;;;;;;;;6260526;22;20004;-92
2023/04/06 00:12:47;;;;;;;0.10;0.10;;;;;;;;;;6259286;22;20022;-95
2023/04/06 00:15:13;;;;;;;0.03;0.03;;;;;;;;;;6262519;22;20003;-92
2023/04/06 00:17:39;;;;;;;0.10;0.10;;;;;;;;;;6264934;22;20008;-93
2023/04/06 00:20:06;;;;;;;0.10;0.10;;;2.20;99.90;;;;;;6259888;22;20030;-94
2023/04/06 00:22:32;;;;;;;0.10;0.10;;;;;;;;;;6263311;22;20087;-94
2023/04/06 00:24:58;;;;;;;0.10;0.10;;;;;;;;;;6259705;22;20045;-92
2023/04/06 00:27:24;;;;;;;0.10;0.10;;;;;;;;;;6262751;22;20019;-91
2023/04/06 00:29:50;;;;;;;0.10;0.10;;;;;;;;;;6273535;22;20003;-95
2023/04/06 00:32:16;;;;;;;0.10;0.10;;;;;;;;;;6269893;22;20014;-93
2023/04/06 00:34:42;;;;;;;0.10;0.10;;;;;;;;;;6264769;22;19999;-92
2023/04/06 00:37:08;;;;;;;0.10;0.10;;;;;;;;;;6260028;22;20022;-92
2023/04/06 00:39:34;;;;;;;0.10;0.10;;;;;;;;;;6261807;22;20012;-93
2023/04/06 00:42:00;;;;;;;0.08;0.08;;;;;;;;;;6261449;22;20003;-94
2023/04/06 00:44:27;;;;;;;0.00;0.00;;;1.70;99.90;;;;;;6259583;22;20004;-93
2023/04/06 00:46:53;;;;;;;0.10;0.10;;;;;;;;;;6261502;22;20061;-93
2023/04/06 00:49:19;;;;;;;0.00;0.00;;;;;;;;;;6263461;22;19988;-92
2023/04/06 00:51:45;;;;;;;0.10;0.10;;;;;;;;;;6263650;22;20086;-92
2023/04/06 00:54:11;;;;;;;0.10;0.10;;;;;;;;;;6260344;22;20073;-92
2023/04/06 00:56:37;;;;;;;0.10;0.10;;;;;;;;;;6262892;22;20008;-93
2023/04/06 00:59:03;;;;;;;0.00;0.00;;;;;;;;;;6261309;22;20008;-92
2023/04/06 01:01:29;;;;;;;0.10;0.10;;;;;;;;;;6261332;22;20202;-93
2023/04/06 01:03:55;;;;;;;0.10;0.10;;;;;;;;;;6261952;22;20065;-93
2023/04/06 01:06:21;;;;;;;0.10;0.10;;;;;;;;;;6263986;22;20015;-93
2023/04/06 01:08:47;;;;;;;0.10;0.10;;;;;;;;;;6261809;22;19999;-93
2023/04/06 01:11:13;;;;;;;0.10;0.10;;;;;;;;;;6259176;22;20019;-93
2023/04/06 01:13:39;;;;;;;0.10;0.10;;;;;;;;;;6260436;22;20067;-93
2023/04/06 01:16:05;;;;;;;0.10;0.10;;;;;;;;;;6260472;22;19996;-93
2023/04/06 01:18:31;;;;;;;0.10;0.10;;;;;;;;;;6261786;22;20011;-93
2023/04/06 01:20:58;;;;;;;0.10;0.10;;;;;;;;;;6261479;22;20055;-92
2023/04/06 01:23:24;;;;;;;0.10;0.10;;;;;;;;;;6263823;22;20028;-93
2023/04/06 01:25:49;;;;;;;0.10;0.10;;;1.40;99.90;;;;;;6260019;22;19995;-92
2023/04/06 01:28:15;;;;;;;0.10;0.10;;;;;;;;;;6259543;22;20008;-93
2023/04/06 01:30:41;;;;;;;0.10;0.10;;;;;;;;;;6260334;22;20003;-94
2023/04/06 01:33:07;;;;;;;0.05;0.05;;;;;;;;;;6257055;22;20023;-95
2023/04/06 01:35:33;;;;;;;0.10;0.10;;;;;;;;;;6257818;22;20352;-91
2023/04/06 01:37:59;;;;;;;0.10;0.10;;;;;;;;;;6261733;22;20000;-95
2023/04/06 01:40:25;;;;;;;0.08;0.08;;;;;;;;;;6259518;22;19993;-95
2023/04/06 01:42:51;;;;;;;0.10;0.10;;;;;;;;;;6260273;22;20000;-95
2023/04/06 01:45:17;;;;;;;0.10;0.10;;;;;;;;;;6261256;22;20039;-94
2023/04/06 01:47:43;;;;;;;0.10;0.10;;;;;;;;;;6262623;22;20007;-95
2023/04/06 01:50:09;;;;;;;0.10;0.10;;;;;;;;;;6262102;22;20337;-92
2023/04/06 01:52:35;;;;;;;0.10;0.10;;;;;;;;;;6259840;22;20003;-94
2023/04/06 01:55:01;;;;;;;0.10;0.10;;;;;;;;;;6260710;22;19999;-94
2023/04/06 01:57:27;;;;;;;0.10;0.10;;;;;;;;;;6261316;22;20011;-92
2023/04/06 01:59:53;;;;;;;0.10;0.10;;;;;;;;;;6262792;22;20000;-92
2023/04/06 02:02:19;;;;;;;0.10;0.10;;;;;;;;;;6261136;22;20023;-93
2023/04/06 02:04:45;;;;;;;0.10;0.10;;;;;;;;;;6263156;22;20086;-93
2023/04/06 02:07:11;;;;;;;0.10;0.10;;;;;;;;;;6260747;22;20564;-93
2023/04/06 02:09:37;;;;;;;0.10;0.10;;;;;;;;;;6261855;22;20007;-93
2023/04/06 02:12:03;;;;;;;0.20;0.20;;;;;;;;;;6260402;22;20007;-95
2023/04/06 02:14:29;;;;;;;0.10;0.10;;;;;;;;;;6264176;22;20052;-94
2023/04/06 02:16:55;;;;;;;0.10;0.10;;;;;;;;;;6262864;22;20008;-92
2023/04/06 02:19:20;;;;;;;0.10;0.10;;;;;;;;;;6255033;22;20029;-94
2023/04/06 02:21:46;;;;;;;0.10;0.10;;;;;;;;;;6260830;22;20467;-94
2023/04/06 02:24:12;;;;;;;0.10;0.10;;;;;;;;;;6261904;22;20223;-94
2023/04/06 02:26:38;;;;;;;0.10;0.10;;;;;;;;;;6260986;22;20012;-93
2023/04/06 02:29:05;;;;;;;0.10;0.10;;;;;;;;;;6261309;22;20014;-95
2023/04/06 02:31:31;;;;;;;0.10;0.10;;;;;;;;;;6263544;22;20008;-92
2023/04/06 02:33:57;;;;;;;0.10;0.10;;;;;;;;;;6262648;22;20000;-94
2023/04/06 02:36:23;;;;;;;0.10;0.10;;;;;;;;;;6259702;22;20063;-93
2023/04/06 02:38:49;;;;;;;0.10;0.10;;;;;;;;;;6261286;22;20333;-94
2023/04/06 02:41:15;;;;;;;0.10;0.10;;;;;;;;;;6260005;22;20106;-95
2023/04/06 02:43:41;;;;;;;0.10;0.10;;;;;;;;;;6262051;22;20003;-94
2023/04/06 02:46:07;;;;;;;0.10;0.10;;;;;;;;;;6261403;22;20091;-94
2023/04/06 02:48:36;;;;;;;0.10;0.10;;;;;;;;;;6262406;22;20008;-94
2023/04/06 02:51:01;;;;;;;0.00;0.00;;;;;;;;;;6262418;22;20079;-94
2023/04/06 02:53:27;;;;;;;0.10;0.10;;;;;;;;;;6261784;22;20004;-92
2023/04/06 02:55:54;;;;;;;0.10;0.10;;;;;;;;;;6261561;22;20234;-96
2023/04/06 02:58:20;;;;;;;0.10;0.10;;;;;;;;;;6261564;22;20000;-92
2023/04/06 03:00:45;;;;;;;0.10;0.10;;;;;;;;;;6257218;22;20019;-95
2023/04/06 03:03:11;;;;;;;0.10;0.10;;;;;;;;;;6260351;22;20003;-94
2023/04/06 03:05:37;;;;;;;0.00;0.00;;;;;;;;;;6256843;22;20004;-93
2023/04/06 03:08:03;;;;;;;0.10;0.10;;;;;;;;;;6261374;22;20000;-95
2023/04/06 03:10:29;;;;;;;0.10;0.10;;;;;;;;;;6258673;22;20318;-94
2023/04/06 03:12:55;;;;;;;0.00;0.00;;;;;;;;;;6263836;22;19996;-94
2023/04/06 03:15:21;;;;;;;0.10;0.10;;;;;;;;;;6261290;22;20125;-94
2023/04/06 03:17:47;;;;;;;0.10;0.10;;;;;;;;;;6260975;22;20011;-94
2023/04/06 03:20:13;;;;;;;0.10;0.10;;;;;;;;;;6261640;22;20007;-93
2023/04/06 03:22:39;;;;;;;0.10;0.10;;;;;;;;;;6261153;22;20054;-95
2023/04/06 03:25:05;;;;;;;0.10;0.10;;;1.10;99.90;;;;;;6260213;22;20008;-95
2023/04/06 03:27:31;;;;;;;0.10;0.10;;;;;;;;;;6262817;22;20004;-94
2023/04/06 03:29:57;;;;;;;0.10;0.10;;;;;;;;;;6261166;22;20000;-95
2023/04/06 03:32:23;;;;;;;0.10;0.10;;;;;;;;;;6262540;22;19999;-94
2023/04/06 03:34:48;;;;;;;0.10;0.10;;;0.90;99.90;;;;;;6261449;22;20020;-94
2023/04/06 04:36:57;;;;;;;0.10;0.10;;;;;;;;;;6226651;22;20019;-93
2023/04/06 04:39:23;;;;;;;0.15;0.15;;;;;;;;;;6227361;23;20001;-93
2023/04/06 04:41:49;;;;;;;0.10;0.10;;;;;;;;;;6226521;23;20008;-94
2023/04/06 04:44:15;;;;;;;0.10;0.10;;;;;;;;;;6228163;23;20016;-93
2023/04/06 04:46:41;;;;;;;0.10;0.10;;;;;;;;;;6227246;23;20431;-94
2023/04/06 04:49:07;;;;;;;0.10;0.10;;;;;;;;;;6227787;23;20023;-93
2023/04/06 04:51:33;;;;;;;0.10;0.10;;;;;;;;;;6225891;23;20004;-94
2023/04/06 04:53:59;;;;;;;0.20;0.20;;;;;;;;;;6227622;23;20004;-93
2023/04/06 04:56:27;;;;;;;0.10;0.10;;;;;;;;;;6224010;23;20043;-92
2023/04/06 04:58:53;;;;;;;0.15;0.15;;;;;;;;;;6226803;23;20009;-94
2023/04/06 05:01:19;;;;;;;0.10;0.10;;;;;;;;;;6228940;23;20096;-93
2023/04/06 05:15:12;;;;;;;0.13;0.13;;;;;;;;;;6229029;23;20016;-93
2023/04/06 05:17:38;;;;;;;0.20;0.20;;;;;;;;;;6228824;23;20008;-93
2023/04/06 05:20:05;;;;;;;0.10;0.10;;;0.60;99.90;;;;;;6228540;23;20015;-93
2023/04/06 05:22:31;;;;;;;0.10;0.10;;;;;;;;;;6230275;23;20001;-92
2023/04/06 05:24:57;;;;;;;0.10;0.10;;;;;;;;;;6227511;23;20008;-93
2023/04/06 05:27:23;;;;;;;0.10;0.10;;;;;;;;;;6227054;23;20007;-94
2023/04/06 05:29:48;;;;;;;0.10;0.10;;;0.60;99.90;;;;;;6223740;23;20011;-93
2023/04/06 05:32:14;;;;;;;0.10;0.10;;;;;;;;;;6224157;23;20008;-95
2023/04/06 05:34:40;;;;;;;0.10;0.10;;;;;;;;;;6227788;23;20020;-95
2023/04/06 05:37:06;;;;;;;0.10;0.10;;;;;;;;;;6239147;23;20020;-94
2023/04/06 05:39:32;;;;;;;0.10;0.10;;;;;;;;;;6234607;23;20061;-94
2023/04/06 05:41:58;;;;;;;0.10;0.10;;;;;;;;;;6225655;23;20024;-94
2023/04/06 05:44:24;;;;;;;0.10;0.10;;;;;;;;;;6223833;23;20001;-93
2023/04/06 05:46:50;;;;;;;0.10;0.10;;;;;;;;;;6226313;23;20005;-93
2023/04/06 05:49:16;;;;;;;0.03;0.03;;;;;;;;;;6221925;23;19996;-92
2023/04/06 05:51:42;;;;;;;0.10;0.10;;;;;;;;;;6224739;23;20036;-94
2023/04/06 05:54:08;;;;;;;0.10;0.10;;;;;;;;;;6226865;23;20008;-93
2023/04/06 05:56:33;;;;;;;0.10;0.10;;;;;;;;;;6228430;23;20012;-92
2023/04/06 05:59:00;;;;;;;0.10;0.10;;;;;;;;;;6225033;23;20064;-93
2023/04/06 06:01:25;;;;;;;0.00;0.00;;;;;;;;;;6222791;23;20015;-94
2023/04/06 06:03:51;;;;;;;0.10;0.10;;;;;;;;;;6225776;23;20016;-93
2023/04/06 06:06:17;;;;;;;0.10;0.10;;;;;;;;;;6224785;23;20004;-93
2023/04/06 06:08:43;;;;;;;0.10;0.10;;;;;;;;;;6224198;23;20009;-95
2023/04/06 06:11:09;;;;;;;0.10;0.10;;;;;;;;;;6224655;23;20004;-94
2023/04/06 06:13:35;;;;;;;0.10;0.10;;;;;;;;;;6222566;23;20004;-93
2023/04/06 06:16:04;;;;;;;0.10;0.10;;;;;;;;;;6219788;23;20001;-94
2023/04/06 06:18:30;;;;;;;0.10;0.10;;;;;;;;;;6229921;23;20031;-94
2023/04/06 06:20:58;;;;;;;0.10;0.10;;;;;;;;;;6205285;23;20103;-95
2023/04/06 06:23:24;;;;;;;0.10;0.10;;;;;;;;;;6226116;23;19997;-93
2023/04/06 06:25:50;;;;;;;0.10;0.10;;;;;;;;;;6229974;23;20050;-93
2023/04/06 06:28:16;;;;;;;0.10;0.10;;;;;;;;;;6233564;23;19997;-94
2023/04/06 06:30:42;;;;;;;0.10;0.10;;;;;;;;;;6232447;23;20020;-94
2023/04/06 06:33:08;;;;;;;0.10;0.10;;;;;;;;;;6231135;23;20031;-94
2023/04/06 06:35:34;;;;;;;0.10;0.10;;;;;;;;;;6231182;23;20027;-93
2023/04/06 06:38:00;;;;;;;0.10;0.10;;;;;;;;;;6229271;23;20011;-94
2023/04/06 06:40:26;;;;;;;0.10;0.10;;;;;;;;;;6229389;23;20000;-93
2023/04/06 06:42:52;;;;;;;0.10;0.10;;;;;;;;;;6229777;23;20009;-93
2023/04/06 06:45:18;;;;;;;0.10;0.10;;;;;;;;;;6226080;23;20039;-94
2023/04/06 06:47:44;;;;;;;0.10;0.10;;;;;;;;;;6225605;23;20035;-93
2023/04/06 06:50:10;;;;;;;0.10;0.10;;;;;;;;;;6225940;23;20016;-93
2023/04/06 06:52:36;;;;;;;0.10;0.10;;;;;;;;;;6225849;23;19993;-94
2023/04/06 06:55:02;;;;;;;0.10;0.10;;;;;;;;;;6226862;23;20004;-93
2023/04/06 06:57:28;;;;;;;0.10;0.10;;;;;;;;;;6223574;23;20031;-93
2023/04/06 06:59:54;;;;;;;0.10;0.10;;;;;;;;;;6222375;23;20005;-94
2023/04/06 07:02:20;;;;;;;0.00;0.00;;;;;;;;;;6227616;23;20011;-94
2023/04/06 07:04:49;;;;;;;0.10;0.10;;;3.30;99.90;;;;;;6223009;23;20084;-93
2023/04/06 07:07:15;;;;;;;0.10;0.10;;;;;;;;;;6224889;23;20004;-93
2023/04/06 07:19:04;;;;;;;0.10;0.10;;;4.00;99.90;;;;;;6228050;22;20024;-90
2023/04/06 07:21:30;;;;;;;0.10;0.10;;;;;;;;;;6200730;23;20010;-92
2023/04/06 07:23:56;;;;;;;0.10;0.10;;;;;;;;;;6216962;23;20038;-92
2023/04/06 07:26:22;;;;;;;0.10;0.10;;;;;;;;;;6218021;23;20047;-91
2023/04/06 07:28:48;;;;;;;0.10;0.10;;;;;;;;;;6219521;23;20063;-92
2023/04/06 07:31:14;;;;;;;0.10;0.10;;;;;;;;;;6245337;23;19996;-90
2023/04/06 07:37:43;;;;;;;0.10;0.10;;;4.90;99.90;;;;;;6264864;23;20010;-89
2023/04/06 07:42:57;;;;;;;0.10;0.10;;;;;;;;;;6264541;22;20015;-90
2023/04/06 07:48:50;;;;;;;0.10;0.10;;;;;;;;;;6219518;23;20352;-88
2023/04/06 07:51:39;;;;;;;0.10;0.10;;;5.30;99.90;;;;;;6261745;23;20008;-90
2023/04/06 09:05:51;;;;;;;0.10;0.10;;;;;;;;;;6243478;23;20424;-91
2023/04/06 09:08:16;;;;;;;0.10;0.10;;;;;;;;;;6217750;23;20099;-90
2023/04/06 09:10:42;;;;;;;0.10;0.10;;;;;;;;;;6218965;23;20000;-91
2023/04/06 09:13:09;;;;;;;0.10;0.10;;;;;;;;;;6219015;23;20000;-91
2023/04/06 09:15:35;;;;;;;0.10;0.10;;;;;;;;;;6216539;23;20464;-91
2023/04/06 09:20:43;;;;;;;0.10;0.10;;;;;;;;;;6226233;22;20039;-90
2023/04/06 09:23:18;;;;;;;0.10;0.10;;;8.40;89.60;;;;;;6225922;23;20076;-93
2023/04/06 09:25:44;;;;;;;0.00;0.00;;;;;;;;;;6199826;23;20142;-92
2023/04/06 09:28:16;;;;;;;0.10;0.10;;;8.70;85.10;;;;;;6226056;23;20012;-91
2023/04/06 09:31:03;;;;;;;0.10;0.10;;;8.70;85.80;;;;;;6227524;23;20377;-90
2023/04/06 09:33:29;;;;;;;0.10;0.10;;;;;;;;;;6225938;23;20054;-96
2023/04/06 09:35:55;;;;;;;0.10;0.10;;;;;;;;;;6224012;23;20008;-92
2023/04/06 09:38:21;;;;;;;0.10;0.10;;;9.00;85.10;;;;;;6224261;23;20005;-90
2023/04/06 09:40:53;;;;;;;0.10;0.10;;;9.10;82.80;;;;;;6226107;23;20009;-91
2023/04/06 09:43:44;;;;;;;0.10;0.10;;;9.00;83.50;;;;;;6201899;23;20012;-91
2023/04/06 09:46:34;;;;;;;0.10;0.10;;;9.00;85.20;;;;;;6225158;23;20011;-89
2023/04/06 09:49:14;;;;;;;0.10;0.10;;;9.20;85.50;;;;;;6228132;23;19997;-90
2023/04/06 09:51:53;;;;;;;0.10;0.10;;;9.30;85.70;;;;;;6224008;23;20036;-92
2023/04/06 09:54:22;;;;;;;0.10;0.10;;;9.60;84.00;;;;;;6175598;23;20004;-92
2023/04/06 09:57:09;;;;;;;0.10;0.10;;;9.70;84.50;;;;;;6198377;23;20013;-96
2023/04/06 09:59:57;;;;;;;0.10;0.10;;;9.70;83.00;;;;;;6223896;23;20084;-91
2023/04/06 10:02:47;;;;;;;0.10;0.10;;;11.30;84.50;;;;;;6225875;23;20011;-92
2023/04/06 10:05:22;;;;;;;0.10;0.10;;;9.80;82.50;;;;;;6226569;23;20005;-92
2023/04/06 10:07:50;;;;;;;0.10;0.10;;;9.90;80.90;;;;;;6225700;23;20078;-93
2023/04/06 10:10:16;;;;;;;0.10;0.10;;;;;;;;;;6226678;23;20026;-95
2023/04/06 10:12:44;;;;;;;0.10;0.10;;;10.00;82.30;;;;;;6225888;23;20012;-95
2023/04/06 10:15:10;;;;;;;0.10;0.10;;;10.00;81.70;;;;;;6226106;23;20001;-92
2023/04/06 10:17:35;;;;;;;0.10;0.10;;;10.00;82.70;;;;;;6225820;23;20016;-90
2023/04/06 10:20:12;;;;;;;0.10;0.10;;;10.10;80.80;;;;;;6230387;23;20066;-92
2023/04/06 10:22:43;;;;;;;0.10;0.10;;;10.10;79.60;;;;;;6232295;23;20348;-92
2023/04/06 10:25:09;;;;;;;0.10;0.10;;;;;;;;;;6230361;23;20019;-95
2023/04/06 10:27:35;;;;;;;0.10;0.10;;;;;;;;;;6228896;23;20023;-91
2023/04/06 10:30:06;;;;;;;0.10;0.10;;;10.20;82.50;;;;;;6227396;23;20000;-91
2023/04/06 10:32:39;;;;;;;0.10;0.10;;;10.30;81.40;;;;;;6226727;23;20365;-90
2023/04/06 10:35:08;;;;;;;0.08;0.08;;;10.40;83.10;;;;;;6225965;23;20000;-90
2023/04/06 10:37:49;;;;;;;0.10;0.10;;;10.50;80.30;;;;;;6229289;23;20022;-91
2023/04/06 10:40:19;;;;;;;0.10;0.10;;;10.10;79.60;;;;;;6229176;23;20448;-91
2023/04/06 10:42:45;;;;;;;0.10;0.10;;;10.60;78.80;;;;;;6229509;23;20436;-92
2023/04/06 10:45:23;;;;;;;0.10;0.10;;;10.50;79.40;;;;;;6229041;23;20008;-92
2023/04/06 10:47:49;;;;;;;0.10;0.10;;;;;;;;;;6224794;23;20459;-88
2023/04/06 10:50:18;;;;;;;0.10;0.10;;;10.90;79.80;;;;;;6225108;23;20004;-91
2023/04/06 10:52:45;;;;;;;0.10;0.10;;;10.10;79.70;;;;;;6225787;23;20050;-91
2023/04/06 10:55:12;;;;;;;0.10;0.10;;;10.70;82.90;;;;;;6225047;23;20000;-91
2023/04/06 10:57:38;;;;;;;0.10;0.10;;;;;;;;;;6225544;23;20322;-90
2023/04/06 11:00:05;;;;;;;0.10;0.10;;;11.20;77.30;;;;;;6225737;23;20149;-91
2023/04/06 11:02:32;;;;;;;0.00;0.00;;;;;;;;;;6228029;23;20074;-91
2023/04/06 11:04:58;;;;;;;0.00;0.00;;;;;;;;;;6225452;23;20435;-91
2023/04/06 11:07:25;;;;;;;0.00;0.00;;;11.40;79.20;;;;;;6225611;23;20027;-90
2023/04/06 11:09:51;;;;;;;0.10;0.10;;;;;;;;;;6225784;23;20022;-93
2023/04/06 11:12:27;;;;;;;0.10;0.10;;;11.40;80.70;;;;;;6225413;23;20004;-92
2023/04/06 11:15:03;;;;;;;0.10;0.10;;;11.50;79.50;;;;;;6226278;23;20044;-90
2023/04/06 11:17:29;;;;;;;0.00;0.00;;;;;;;;;;6226980;23;20183;-90
2023/04/06 11:19:56;;;;;;;0.00;0.00;;;11.60;78.70;;;;;;6226318;23;20031;-91
2023/04/06 11:22:21;;;;;;;0.00;0.00;;;;;;;;;;6226377;23;20036;-90
2023/04/06 11:24:48;;;;;;;0.00;0.00;;;;;;;;;;6226272;23;20008;-92
2023/04/06 11:27:16;;;;;;;0.00;0.00;;;;;;;;;;6225681;23;20019;-90
2023/04/06 11:29:42;;;;;;;0.00;0.00;;;;;;;;;;6226702;23;20022;-89
2023/04/06 11:32:08;;;;;;;0.00;0.00;;;;;;;;;;6226077;23;20038;-91
2023/04/06 11:34:39;;;;;;;0.00;0.00;;;11.90;80.50;;;;;;6226658;23;20083;-91
2023/04/06 11:37:09;;;;;;;0.00;0.00;;;11.70;80.70;;;;;;6227172;23;20008;-92
2023/04/06 11:39:46;;;;;;;0.00;0.00;;;12.00;80.70;;;;;;6225276;23;20003;-91
2023/04/06 11:42:12;;;;;;;0.00;0.00;;;;;;;;;;6226912;23;20015;-90
2023/04/06 11:44:45;;;;;;;0.00;0.00;;;12.10;79.90;;;;;;6225149;23;20000;-90
2023/04/06 11:47:12;;;;;;;0.00;0.00;;;;;;;;;;6225121;23;20055;-90
2023/04/06 11:49:42;;;;;;;0.00;0.00;;;12.30;81.60;;;;;;6225214;23;20314;-91
2023/04/06 11:52:34;;;;;;;0.00;0.00;;;12.30;79.10;;;;;;6226605;23;20007;-90
2023/04/06 11:55:11;;;;;;;0.00;0.00;;;12.30;80.70;;;;;;6221222;23;20004;-91
2023/04/06 11:57:37;;;;;;;0.03;0.03;;;;;;;;;;6227498;23;20087;-87
2023/04/06 12:00:04;;;;;;;0.00;0.00;;;;;;;;;;6227118;23;20008;-91
2023/04/06 12:02:31;;;;;;;0.00;0.00;;;;;;;;;;6228877;23;20011;-91
2023/04/06 12:04:57;;;;;;;0.08;0.08;;;;;;;;;;6227379;23;20004;-91
2023/04/06 12:07:23;;;;;;;0.00;0.00;;;;;;;;;;6226199;23;20520;-92
2023/04/06 12:09:49;;;;;;;0.00;0.00;;;;;;;;;;6226623;23;20441;-91
2023/04/06 12:12:15;;;;;;;0.00;0.00;;;;;;;;;;6226381;23;20000;-91
2023/04/06 12:14:41;;;;;;;0.00;0.00;;;;;;;;;;6227734;23;20008;-91
2023/04/06 12:17:07;;;;;;;0.00;0.00;;;;;;;;;;6226999;23;20008;-91
2023/04/06 12:19:33;;;;;;;0.00;0.00;;;;;;;;;;6226555;23;20019;-91
2023/04/06 12:21:59;;;;;;;0.00;0.00;;;;;;;;;;6227573;23;20004;-91
2023/04/06 12:24:25;;;;;;;0.00;0.00;;;;;;;;;;6228109;23;20380;-91
2023/04/06 12:26:51;;;;;;;0.00;0.00;;;;;;;;;;6227104;23;20001;-92
2023/04/06 12:29:17;;;;;;;0.00;0.00;;;;;;;;;;6252164;23;20022;-91
2023/04/06 12:31:44;;;;;;;0.00;0.00;;;13.10;76.90;;;;;;6227586;23;20011;-91
2023/04/06 12:34:10;;;;;;;0.00;0.00;;;;;;;;;;6227289;23;20075;-91
2023/04/06 12:36:37;;;;;;;0.00;0.00;;;13.10;77.40;;;;;;6226924;23;20050;-91
2023/04/06 12:39:03;;;;;;;0.00;0.00;;;;;;;;;;6227790;23;20015;-91
2023/04/06 12:41:29;;;;;;;0.00;0.00;;;13.20;74.10;;;;;;6227140;23;20579;-91
2023/04/06 12:43:55;;;;;;;0.00;0.00;;;;;;;;;;6226467;23;20004;-91
2023/04/06 12:46:21;;;;;;;0.00;0.00;;;;;;;;;;6227073;23;20411;-90
2023/04/06 12:48:47;;;;;;;0.00;0.00;;;;;;;;;;6224201;23;20046;-91
2023/04/06 12:51:13;;;;;;;0.00;0.00;;;;;;;;;;6226331;23;20038;-91
2023/04/06 12:53:39;;;;;;;0.00;0.00;;;;;;;;;;6226964;23;20083;-91
2023/04/06 12:56:13;;;;;;;0.00;0.00;;;13.50;71.40;;;;;;6227043;23;20004;-92
2023/04/06 12:58:41;;;;;;;0.00;0.00;;;;;;;;;;6226423;23;20030;-92
2023/04/06 13:01:07;;;;;;;0.00;0.00;;;;;;;;;;6226621;23;20004;-92
2023/04/06 13:03:33;;;;;;;0.00;0.00;;;;;;;;;;6227434;23;20004;-91
2023/04/06 13:06:00;;;;;;;0.00;0.00;;;13.60;71.90;;;;;;6226545;23;20058;-92
2023/04/06 13:08:27;;;;;;;0.00;0.00;;;;;;;;;;6225547;23;20014;-91
2023/04/06 13:10:53;;;;;;;0.00;0.00;;;;;;;;;;6226611;23;20077;-92
2023/04/06 13:13:27;;;;;;;0.00;0.00;;;13.70;73.40;;;;;;6226250;23;20445;-91
2023/04/06 13:15:53;;;;;;;0.00;0.00;;;;;;;;;;6226338;23;20000;-91
2023/04/06 13:18:19;;;;;;;0.00;0.00;;;;;;;;;;6227075;23;20091;-92
2023/04/06 13:20:47;;;;;;;0.00;0.00;;;14.00;71.10;;;;;;6227365;23;20027;-91
2023/04/06 13:23:13;;;;;;;0.00;0.00;;;;;;;;;;6226270;23;20004;-91
2023/04/06 13:25:39;;;;;;;0.00;0.00;;;;;;;;;;6226139;23;20004;-91
2023/04/06 13:28:05;;;;;;;0.00;0.00;;;;;;;;;;6226947;22;20011;-92
2023/04/06 13:30:31;;;;;;;0.00;0.00;;;;;;;;;;6226749;23;20032;-92
2023/04/06 13:32:57;;;;;;;0.00;0.00;;;;;;;;;;6226481;23;20032;-91
2023/04/06 13:35:23;;;;;;;0.00;0.00;;;;;;;;;;6226415;23;20026;-91
2023/04/06 13:37:51;;;;;;;0.00;0.00;;;;;;;;;;6226487;23;20004;-91
2023/04/06 13:40:17;;;;;;;0.00;0.00;;;;;;;;;;6226408;23;20004;-90
2023/04/06 13:42:45;;;;;;;0.00;0.00;;;;;;;;;;6225508;23;20061;-91
2023/04/06 13:45:11;;;;;;;0.00;0.00;;;;;;;;;;6225675;23;20004;-92
2023/04/06 13:47:37;;;;;;;0.00;0.00;;;;;;;;;;6225941;23;20032;-88
2023/04/06 13:50:03;;;;;;;0.00;0.00;;;;;;;;;;6225335;23;20004;-90
2023/04/06 13:52:29;;;;;;;0.00;0.00;;;;;;;;;;6224713;23;20000;-92
2023/04/06 13:54:55;;;;;;;0.00;0.00;;;14.80;71.30;;;;;;6225414;23;20032;-90
2023/04/06 13:57:21;;;;;;;0.00;0.00;;;;;;;;;;6225186;23;20006;-89
2023/04/06 13:59:49;;;;;;;0.00;0.00;;;15.10;70.80;;;;;;6224762;23;20008;-90
2023/04/06 14:02:15;;;;;;;0.00;0.00;;;;;;;;;;6224979;23;20012;-91
2023/04/06 14:04:41;;;;;;;0.00;0.00;;;;;;;;;;6226618;23;20019;-91
2023/04/06 14:07:07;;;;;;;0.00;0.00;;;;;;;;;;6224888;23;20004;-92
2023/04/06 14:09:33;;;;;;;0.00;0.00;;;;;;;;;;6225082;23;20004;-91
2023/04/06 14:11:59;;;;;;;0.00;0.00;;;;;;;;;;6226078;23;20004;-91
2023/04/06 14:14:26;;;;;;;0.00;0.00;;;;;;;;;;6225749;23;20011;-92
2023/04/06 14:16:52;;;;;;;0.00;0.00;;;;;;;;;;6226087;23;20012;-92
2023/04/06 14:19:18;;;;;;;0.00;0.00;;;15.40;63.20;;;;;;6225377;23;20039;-91
2023/04/06 14:21:44;;;;;;;0.10;0.10;;;15.30;62.50;;;;;;6226088;23;20078;-91
2023/04/06 14:24:10;;;;;;;0.00;0.00;;;15.20;62.80;;;;;;6226212;23;20019;-91
2023/04/06 14:26:36;;;;;;;0.00;0.00;;;;;;;;;;6222320;23;20008;-90
2023/04/06 14:29:04;;;;;;;0.00;0.00;;;15.20;65.40;;;;;;6225476;23;20034;-91
2023/04/06 14:31:30;;;;;;;0.00;0.00;;;;;;;;;;6226080;23;20004;-92
2023/04/06 14:33:56;;;;;;;0.00;0.00;;;;;;;;;;6224653;23;20005;-91
2023/04/06 14:36:22;;;;;;;0.00;0.00;;;;;;;;;;6224995;23;20004;-91
2023/04/06 14:38:48;;;;;;;0.00;0.00;;;;;;;;;;6226256;23;20113;-90
2023/04/06 14:41:23;;;;;;;0.00;0.00;;;15.20;62.30;;;;;;6225217;23;20036;-92
2023/04/06 14:43:49;;;;;;;0.00;0.00;;;;;;;;;;6224007;23;20000;-90
2023/04/06 14:46:18;;;;;;;0.05;0.05;;;;;;;;;;6226103;23;20012;-91
2023/04/06 14:48:45;;;;;;;0.00;0.00;;;15.40;62.80;;;;;;6225674;23;20008;-91
2023/04/06 14:51:11;;;;;;;0.00;0.00;;;;;;;;;;6226060;23;20492;-91
2023/04/06 14:53:37;;;;;;;0.00;0.00;;;;;;;;;;6225804;23;20008;-90
2023/04/06 14:56:03;;;;;;;0.00;0.00;;;;;;;;;;6226570;23;20000;-91
2023/04/06 14:58:29;;;;;;;0.00;0.00;;;;;;;;;;6225732;23;20007;-91
2023/04/06 15:00:59;;;;;;;0.00;0.00;;;15.30;64.10;;;;;;6224796;23;20437;-92
2023/04/06 15:03:26;;;;;;;0.00;0.00;;;;;;;;;;6224035;23;20011;-90
2023/04/06 15:05:55;;;;;;;0.00;0.00;;;15.30;64.20;;;;;;6223321;23;20023;-92
2023/04/06 15:08:22;;;;;;;0.00;0.00;;;15.30;62.70;;;;;;6225911;23;20019;-91
2023/04/06 15:10:48;;;;;;;0.00;0.00;;;;;;;;;;6225257;23;20000;-92
2023/04/06 15:13:14;;;;;;;0.00;0.00;;;;;;;;;;6225286;23;20018;-90
2023/04/06 15:15:44;;;;;;;0.00;0.00;;;15.10;63.70;;;;;;6225137;23;20069;-88
2023/04/06 15:18:10;;;;;;;0.00;0.00;;;15.00;64.00;;;;;;6225536;22;20059;-91
2023/04/06 15:20:36;;;;;;;0.00;0.00;;;;;;;;;;6226474;23;20448;-93
2023/04/06 15:23:03;;;;;;;0.00;0.00;;;;;;;;;;6230401;23;20008;-90
2023/04/06 15:25:29;;;;;;;0.00;0.00;;;;;;;;;;6230665;23;20086;-90
2023/04/06 15:27:55;;;;;;;0.00;0.00;;;;;;;;;;6227210;22;20014;-90
2023/04/06 15:30:21;;;;;;;0.00;0.00;;;;;;;;;;6228195;23;20003;-91
2023/04/06 15:32:55;;;;;;;0.00;0.00;;;15.00;65.00;;;;;;6228190;23;20008;-91
2023/04/06 15:35:21;;;;;;;0.00;0.00;;;;;;;;;;6228202;23;20032;-91
2023/04/06 15:37:48;;;;;;;0.00;0.00;;;;;;;;;;6226463;23;20433;-91
2023/04/06 15:40:15;;;;;;;0.00;0.00;;;;;;;;;;6227203;23;20004;-91
2023/04/06 15:42:42;;;;;;;0.00;0.00;;;;;;;;;;6227728;23;20318;-89
2023/04/06 15:45:09;;;;;;;0.00;0.00;;;;;;;;;;6225872;23;20062;-91
2023/04/06 15:47:35;;;;;;;0.00;0.00;;;;;;;;;;6226701;23;20012;-91
2023/04/06 15:50:01;;;;;;;0.00;0.00;;;;;;;;;;6227762;23;20492;-91
2023/04/06 15:52:26;;;;;;;0.00;0.00;;;14.90;66.80;;;;;;6226723;23;20054;-90
2023/04/06 15:54:52;;;;;;;0.00;0.00;;;;;;;;;;6228735;23;20004;-91
2023/04/06 15:57:18;;;;;;;0.00;0.00;;;;;;;;;;6227597;23;20035;-90
2023/04/06 15:59:44;;;;;;;0.10;0.10;;;;;;;;;;6226433;23;20019;-91
2023/04/06 16:02:10;;;;;;;0.10;0.10;;;;;;;;;;6225435;23;20464;-93
2023/04/06 16:04:36;;;;;;;0.00;0.00;;;;;;;;;;6224983;23;20060;-91
2023/04/06 16:07:02;;;;;;;0.00;0.00;;;;;;;;;;6226248;23;20001;-91
2023/04/06 16:09:28;;;;;;;0.00;0.00;;;;;;;;;;6226876;23;20007;-91
2023/04/06 16:11:55;;;;;;;0.00;0.00;;;;;;;;;;6227706;23;20372;-91
2023/04/06 16:14:21;;;;;;;0.00;0.00;;;;;;;;;;6224846;23;20008;-90
2023/04/06 16:16:48;;;;;;;0.00;0.00;;;;;;;;;;6226422;23;20019;-90
2023/04/06 16:19:15;;;;;;;0.00;0.00;;;;;;;;;;6227356;23;20008;-89
2023/04/06 16:21:40;;;;;;;0.00;0.00;;;;;;;;;;6227836;23;20008;-87
2023/04/06 16:24:07;;;;;;;0.00;0.00;;;14.50;70.30;;;;;;6226593;23;20067;-90
2023/04/06 16:26:33;;;;;;;0.00;0.00;;;;;;;;;;6227227;23;20099;-92
2023/04/06 16:28:59;;;;;;;0.10;0.10;;;;;;;;;;6226739;23;19996;-91
2023/04/06 16:31:25;;;;;;;0.00;0.00;;;;;;;;;;6226915;23;20004;-91
2023/04/06 16:33:55;;;;;;;0.00;0.00;;;14.40;70.10;;;;;;6227081;23;20096;-91
2023/04/06 16:36:26;;;;;;;0.00;0.00;;;14.10;71.20;;;;;;6228820;23;20016;-91
2023/04/06 16:38:52;;;;;;;0.00;0.00;;;;;;;;;;6225425;23;20015;-92
2023/04/06 16:41:19;;;;;;;0.00;0.00;;;14.20;71.70;;;;;;6226330;23;20000;-91
2023/04/06 16:43:45;;;;;;;0.00;0.00;;;14.10;70.40;;;;;;6226112;23;20007;-90
2023/04/06 16:46:11;;;;;;;0.00;0.00;;;;;;;;;;6225992;23;20023;-90
2023/04/06 16:48:37;;;;;;;0.00;0.00;;;;;;;;;;6225842;23;20008;-87
2023/04/06 16:51:07;;;;;;;0.00;0.00;;;13.90;73.90;;;;;;6226099;23;20333;-91
2023/04/06 16:53:37;;;;;;;0.00;0.00;;;13.90;73.90;;;;;;6227949;23;20035;-91
2023/04/06 16:56:04;;;;;;;0.00;0.00;;;13.80;74.50;;;;;;6226137;23;20310;-92
2023/04/06 16:58:33;;;;;;;0.00;0.00;;;13.80;76.40;;;;;;6225102;23;20008;-91